sensor_id;sensor_type;location;lat;lon;timestamp;P1;durP1;ratioP1;P2;durP2;ratioP2
52432;SDS011;38352;53.244;6.594;2022-09-09T00:00:11;20.00;;;12.18;;
52432;SDS011;38352;53.244;6.594;2022-09-09T00:02:38;15.63;;;10.95;;
52432;SDS011;38352;53.244;6.594;2022-09-09T00:05:16;16.20;;;11.02;;
52432;SDS011;38352;53.244;6.594;2022-09-09T00:07:46;20.25;;;10.88;;
52432;SDS011;38352;53.244;6.594;2022-09-09T00:10:19;20.27;;;11.27;;
52432;SDS011;38352;53.244;6.594;2022-09-09T00:15:20;18.42;;;10.75;;
52432;SDS011;38352;53.244;6.594;2022-09-09T00:18:00;18.30;;;10.25;;
52432;SDS011;38352;53.244;6.594;2022-09-09T00:20:29;20.67;;;11.15;;
52432;SDS011;38352;53.244;6.594;2022-09-09T00:23:03;18.35;;;10.75;;
52432;SDS011;38352;53.244;6.594;2022-09-09T00:25:37;23.08;;;10.88;;
52432;SDS011;38352;53.244;6.594;2022-09-09T00:28:18;16.95;;;10.80;;
52432;SDS011;38352;53.244;6.594;2022-09-09T00:30:44;19.15;;;11.50;;
52432;SDS011;38352;53.244;6.594;2022-09-09T00:33:15;19.88;;;11.25;;
52432;SDS011;38352;53.244;6.594;2022-09-09T00:36:18;20.00;;;11.30;;
52432;SDS011;38352;53.244;6.594;2022-09-09T00:38:41;17.98;;;11.13;;
52432;SDS011;38352;53.244;6.594;2022-09-09T00:41:16;20.45;;;11.68;;
52432;SDS011;38352;53.244;6.594;2022-09-09T00:43:43;16.10;;;10.73;;
52432;SDS011;38352;53.244;6.594;2022-09-09T00:51:17;16.25;;;10.98;;
52432;SDS011;38352;53.244;6.594;2022-09-09T00:54:03;18.13;;;11.70;;
52432;SDS011;38352;53.244;6.594;2022-09-09T00:56:37;19.15;;;11.63;;
52432;SDS011;38352;53.244;6.594;2022-09-09T01:01:36;18.98;;;10.80;;
52432;SDS011;38352;53.244;6.594;2022-09-09T01:04:05;18.67;;;11.93;;
52432;SDS011;38352;53.244;6.594;2022-09-09T01:06:36;18.05;;;10.73;;
52432;SDS011;38352;53.244;6.594;2022-09-09T01:12:32;17.40;;;11.43;;
52432;SDS011;38352;53.244;6.594;2022-09-09T01:14:39;17.30;;;9.75;;
52432;SDS011;38352;53.244;6.594;2022-09-09T01:17:11;16.73;;;10.23;;
52432;SDS011;38352;53.244;6.594;2022-09-09T01:24:40;14.23;;;8.88;;
52432;SDS011;38352;53.244;6.594;2022-09-09T01:27:08;17.00;;;9.25;;
52432;SDS011;38352;53.244;6.594;2022-09-09T01:29:36;16.40;;;8.85;;
52432;SDS011;38352;53.244;6.594;2022-09-09T01:32:35;14.40;;;9.35;;
52432;SDS011;38352;53.244;6.594;2022-09-09T01:34:48;14.25;;;7.72;;
52432;SDS011;38352;53.244;6.594;2022-09-09T01:37:15;14.80;;;8.38;;
52432;SDS011;38352;53.244;6.594;2022-09-09T01:39:42;13.98;;;8.07;;
52432;SDS011;38352;53.244;6.594;2022-09-09T01:42:09;15.05;;;8.63;;
52432;SDS011;38352;53.244;6.594;2022-09-09T01:44:36;14.70;;;8.52;;
52432;SDS011;38352;53.244;6.594;2022-09-09T01:47:02;13.15;;;8.27;;
52432;SDS011;38352;53.244;6.594;2022-09-09T01:49:28;13.63;;;9.13;;
52432;SDS011;38352;53.244;6.594;2022-09-09T01:51:55;13.85;;;8.30;;
52432;SDS011;38352;53.244;6.594;2022-09-09T01:54:23;14.27;;;8.82;;
52432;SDS011;38352;53.244;6.594;2022-09-09T02:04:27;15.10;;;8.82;;
52432;SDS011;38352;53.244;6.594;2022-09-09T02:06:57;13.05;;;8.45;;
52432;SDS011;38352;53.244;6.594;2022-09-09T02:09:23;14.68;;;9.15;;
52432;SDS011;38352;53.244;6.594;2022-09-09T02:11:52;15.90;;;8.82;;
52432;SDS011;38352;53.244;6.594;2022-09-09T02:14:23;16.13;;;9.30;;
52432;SDS011;38352;53.244;6.594;2022-09-09T02:19:19;18.08;;;9.48;;
52432;SDS011;38352;53.244;6.594;2022-09-09T02:21:50;17.27;;;10.05;;
52432;SDS011;38352;53.244;6.594;2022-09-09T02:24:16;19.67;;;10.15;;
52432;SDS011;38352;53.244;6.594;2022-09-09T02:26:43;17.48;;;11.10;;
52432;SDS011;38352;53.244;6.594;2022-09-09T02:29:14;16.80;;;11.05;;
52432;SDS011;38352;53.244;6.594;2022-09-09T02:31:42;21.98;;;11.85;;
52432;SDS011;38352;53.244;6.594;2022-09-09T02:34:10;19.02;;;11.10;;
52432;SDS011;38352;53.244;6.594;2022-09-09T02:36:36;19.95;;;10.88;;
52432;SDS011;38352;53.244;6.594;2022-09-09T02:39:03;18.50;;;11.77;;
52432;SDS011;38352;53.244;6.594;2022-09-09T02:41:31;18.02;;;12.20;;
52432;SDS011;38352;53.244;6.594;2022-09-09T02:43:59;18.70;;;11.75;;
52432;SDS011;38352;53.244;6.594;2022-09-09T02:49:11;20.17;;;11.85;;
52432;SDS011;38352;53.244;6.594;2022-09-09T02:56:53;20.70;;;12.63;;
52432;SDS011;38352;53.244;6.594;2022-09-09T02:59:20;23.05;;;12.25;;
52432;SDS011;38352;53.244;6.594;2022-09-09T03:01:47;20.30;;;12.13;;
52432;SDS011;38352;53.244;6.594;2022-09-09T03:04:13;18.65;;;11.60;;
52432;SDS011;38352;53.244;6.594;2022-09-09T03:06:39;17.42;;;11.40;;
52432;SDS011;38352;53.244;6.594;2022-09-09T03:09:05;19.45;;;12.63;;
52432;SDS011;38352;53.244;6.594;2022-09-09T03:11:33;22.92;;;11.77;;
52432;SDS011;38352;53.244;6.594;2022-09-09T03:13:59;19.05;;;11.85;;
52432;SDS011;38352;53.244;6.594;2022-09-09T03:16:25;20.55;;;12.13;;
52432;SDS011;38352;53.244;6.594;2022-09-09T03:18:51;24.30;;;11.45;;
52432;SDS011;38352;53.244;6.594;2022-09-09T03:21:17;19.95;;;11.05;;
52432;SDS011;38352;53.244;6.594;2022-09-09T03:23:43;18.58;;;10.32;;
52432;SDS011;38352;53.244;6.594;2022-09-09T03:26:10;19.90;;;10.57;;
52432;SDS011;38352;53.244;6.594;2022-09-09T03:28:36;19.40;;;10.70;;
52432;SDS011;38352;53.244;6.594;2022-09-09T03:31:04;20.30;;;11.25;;
52432;SDS011;38352;53.244;6.594;2022-09-09T03:33:30;18.30;;;9.88;;
52432;SDS011;38352;53.244;6.594;2022-09-09T03:35:56;17.35;;;10.05;;
52432;SDS011;38352;53.244;6.594;2022-09-09T03:38:23;14.32;;;8.88;;
52432;SDS011;38352;53.244;6.594;2022-09-09T03:40:52;17.85;;;8.68;;
52432;SDS011;38352;53.244;6.594;2022-09-09T03:43:26;13.98;;;8.52;;
52432;SDS011;38352;53.244;6.594;2022-09-09T03:45:53;14.68;;;7.78;;
52432;SDS011;38352;53.244;6.594;2022-09-09T03:48:22;12.85;;;8.10;;
52432;SDS011;38352;53.244;6.594;2022-09-09T03:50:49;17.67;;;8.40;;
52432;SDS011;38352;53.244;6.594;2022-09-09T03:53:16;17.92;;;8.55;;
52432;SDS011;38352;53.244;6.594;2022-09-09T03:55:47;15.95;;;8.00;;
52432;SDS011;38352;53.244;6.594;2022-09-09T03:58:14;11.73;;;7.70;;
52432;SDS011;38352;53.244;6.594;2022-09-09T04:00:40;10.93;;;6.38;;
52432;SDS011;38352;53.244;6.594;2022-09-09T04:03:10;12.80;;;6.50;;
52432;SDS011;38352;53.244;6.594;2022-09-09T04:05:36;11.68;;;5.55;;
52432;SDS011;38352;53.244;6.594;2022-09-09T04:08:05;11.80;;;5.60;;
52432;SDS011;38352;53.244;6.594;2022-09-09T04:10:32;10.05;;;5.40;;
52432;SDS011;38352;53.244;6.594;2022-09-09T04:12:58;10.57;;;6.10;;
52432;SDS011;38352;53.244;6.594;2022-09-09T04:15:25;8.70;;;5.10;;
52432;SDS011;38352;53.244;6.594;2022-09-09T04:17:51;9.50;;;4.80;;
52432;SDS011;38352;53.244;6.594;2022-09-09T04:20:17;10.68;;;4.30;;
52432;SDS011;38352;53.244;6.594;2022-09-09T04:22:44;14.77;;;4.35;;
52432;SDS011;38352;53.244;6.594;2022-09-09T04:25:10;14.27;;;4.38;;
52432;SDS011;38352;53.244;6.594;2022-09-09T04:27:36;13.15;;;4.32;;
52432;SDS011;38352;53.244;6.594;2022-09-09T04:30:02;9.05;;;3.72;;
52432;SDS011;38352;53.244;6.594;2022-09-09T04:32:28;8.18;;;3.75;;
52432;SDS011;38352;53.244;6.594;2022-09-09T04:34:54;8.85;;;4.25;;
52432;SDS011;38352;53.244;6.594;2022-09-09T04:37:20;9.20;;;4.32;;
52432;SDS011;38352;53.244;6.594;2022-09-09T04:39:46;11.57;;;4.25;;
52432;SDS011;38352;53.244;6.594;2022-09-09T04:42:12;9.25;;;4.00;;
52432;SDS011;38352;53.244;6.594;2022-09-09T04:44:38;11.30;;;3.63;;
52432;SDS011;38352;53.244;6.594;2022-09-09T04:47:05;8.25;;;4.20;;
52432;SDS011;38352;53.244;6.594;2022-09-09T04:49:31;7.60;;;4.10;;
52432;SDS011;38352;53.244;6.594;2022-09-09T04:51:57;10.13;;;5.07;;
52432;SDS011;38352;53.244;6.594;2022-09-09T04:54:23;9.15;;;4.07;;
52432;SDS011;38352;53.244;6.594;2022-09-09T04:56:50;10.07;;;3.85;;
52432;SDS011;38352;53.244;6.594;2022-09-09T04:59:16;9.18;;;4.07;;
52432;SDS011;38352;53.244;6.594;2022-09-09T05:01:42;10.32;;;4.80;;
52432;SDS011;38352;53.244;6.594;2022-09-09T05:04:08;7.88;;;4.45;;
52432;SDS011;38352;53.244;6.594;2022-09-09T05:06:34;9.30;;;4.50;;
52432;SDS011;38352;53.244;6.594;2022-09-09T05:09:01;7.88;;;4.18;;
52432;SDS011;38352;53.244;6.594;2022-09-09T05:11:28;12.13;;;5.18;;
52432;SDS011;38352;53.244;6.594;2022-09-09T05:13:55;9.70;;;5.40;;
52432;SDS011;38352;53.244;6.594;2022-09-09T05:16:24;10.77;;;6.10;;
52432;SDS011;38352;53.244;6.594;2022-09-09T05:18:51;11.98;;;6.45;;
52432;SDS011;38352;53.244;6.594;2022-09-09T05:21:18;9.35;;;5.50;;
52432;SDS011;38352;53.244;6.594;2022-09-09T05:23:44;12.15;;;6.90;;
52432;SDS011;38352;53.244;6.594;2022-09-09T05:26:17;12.63;;;6.97;;
52432;SDS011;38352;53.244;6.594;2022-09-09T05:28:44;11.75;;;7.00;;
52432;SDS011;38352;53.244;6.594;2022-09-09T05:31:10;14.95;;;7.53;;
52432;SDS011;38352;53.244;6.594;2022-09-09T05:33:38;13.40;;;7.55;;
52432;SDS011;38352;53.244;6.594;2022-09-09T05:36:11;13.80;;;7.53;;
52432;SDS011;38352;53.244;6.594;2022-09-09T05:38:38;13.30;;;7.10;;
52432;SDS011;38352;53.244;6.594;2022-09-09T05:41:05;11.40;;;7.43;;
52432;SDS011;38352;53.244;6.594;2022-09-09T05:43:32;17.55;;;8.23;;
52432;SDS011;38352;53.244;6.594;2022-09-09T05:46:06;12.68;;;7.60;;
52432;SDS011;38352;53.244;6.594;2022-09-09T05:48:34;14.38;;;9.18;;
52432;SDS011;38352;53.244;6.594;2022-09-09T05:51:00;14.38;;;8.60;;
52432;SDS011;38352;53.244;6.594;2022-09-09T05:53:27;15.90;;;9.27;;
52432;SDS011;38352;53.244;6.594;2022-09-09T05:56:07;15.50;;;8.32;;
52432;SDS011;38352;53.244;6.594;2022-09-09T05:58:35;16.55;;;9.50;;
52432;SDS011;38352;53.244;6.594;2022-09-09T06:01:09;16.90;;;9.13;;
52432;SDS011;38352;53.244;6.594;2022-09-09T06:03:36;14.70;;;9.20;;
52432;SDS011;38352;53.244;6.594;2022-09-09T06:06:03;15.20;;;9.40;;
52432;SDS011;38352;53.244;6.594;2022-09-09T06:08:30;17.23;;;9.48;;
52432;SDS011;38352;53.244;6.594;2022-09-09T06:11:03;18.33;;;9.73;;
52432;SDS011;38352;53.244;6.594;2022-09-09T06:13:30;16.92;;;9.55;;
52432;SDS011;38352;53.244;6.594;2022-09-09T06:15:56;16.48;;;9.30;;
52432;SDS011;38352;53.244;6.594;2022-09-09T06:18:23;15.25;;;9.35;;
52432;SDS011;38352;53.244;6.594;2022-09-09T06:20:56;17.73;;;10.23;;
52432;SDS011;38352;53.244;6.594;2022-09-09T06:23:23;16.52;;;9.75;;
52432;SDS011;38352;53.244;6.594;2022-09-09T06:25:50;18.95;;;10.52;;
52432;SDS011;38352;53.244;6.594;2022-09-09T06:28:16;16.33;;;9.40;;
52432;SDS011;38352;53.244;6.594;2022-09-09T06:30:43;16.73;;;9.35;;
52432;SDS011;38352;53.244;6.594;2022-09-09T06:33:09;14.82;;;9.48;;
52432;SDS011;38352;53.244;6.594;2022-09-09T06:35:35;18.67;;;10.05;;
52432;SDS011;38352;53.244;6.594;2022-09-09T06:38:02;14.88;;;8.95;;
52432;SDS011;38352;53.244;6.594;2022-09-09T06:40:28;13.15;;;8.73;;
52432;SDS011;38352;53.244;6.594;2022-09-09T06:42:58;14.90;;;9.40;;
52432;SDS011;38352;53.244;6.594;2022-09-09T06:45:25;15.48;;;8.57;;
52432;SDS011;38352;53.244;6.594;2022-09-09T06:47:51;16.35;;;8.70;;
52432;SDS011;38352;53.244;6.594;2022-09-09T06:50:21;15.00;;;9.40;;
52432;SDS011;38352;53.244;6.594;2022-09-09T06:52:47;15.70;;;9.07;;
52432;SDS011;38352;53.244;6.594;2022-09-09T06:55:13;15.07;;;8.88;;
52432;SDS011;38352;53.244;6.594;2022-09-09T06:57:40;14.32;;;8.30;;
52432;SDS011;38352;53.244;6.594;2022-09-09T07:00:07;15.27;;;9.00;;
52432;SDS011;38352;53.244;6.594;2022-09-09T07:02:33;13.20;;;8.55;;
52432;SDS011;38352;53.244;6.594;2022-09-09T07:05:04;17.35;;;8.93;;
52432;SDS011;38352;53.244;6.594;2022-09-09T07:07:30;13.00;;;7.90;;
52432;SDS011;38352;53.244;6.594;2022-09-09T07:09:56;14.00;;;8.48;;
52432;SDS011;38352;53.244;6.594;2022-09-09T07:12:22;13.55;;;8.07;;
52432;SDS011;38352;53.244;6.594;2022-09-09T07:14:48;14.52;;;8.80;;
52432;SDS011;38352;53.244;6.594;2022-09-09T07:17:14;18.73;;;8.27;;
52432;SDS011;38352;53.244;6.594;2022-09-09T07:19:40;18.48;;;7.40;;
52432;SDS011;38352;53.244;6.594;2022-09-09T07:22:06;12.38;;;7.30;;
52432;SDS011;38352;53.244;6.594;2022-09-09T07:24:35;11.30;;;6.82;;
52432;SDS011;38352;53.244;6.594;2022-09-09T07:27:02;11.50;;;7.32;;
52432;SDS011;38352;53.244;6.594;2022-09-09T07:29:28;12.27;;;8.20;;
52432;SDS011;38352;53.244;6.594;2022-09-09T07:31:54;16.83;;;7.47;;
52432;SDS011;38352;53.244;6.594;2022-09-09T07:34:20;12.73;;;7.95;;
52432;SDS011;38352;53.244;6.594;2022-09-09T07:36:46;13.27;;;6.50;;
52432;SDS011;38352;53.244;6.594;2022-09-09T07:39:13;12.30;;;7.55;;
52432;SDS011;38352;53.244;6.594;2022-09-09T07:41:43;11.38;;;7.43;;
52432;SDS011;38352;53.244;6.594;2022-09-09T07:44:11;12.98;;;8.18;;
52432;SDS011;38352;53.244;6.594;2022-09-09T07:46:37;13.27;;;7.70;;
52432;SDS011;38352;53.244;6.594;2022-09-09T07:49:07;13.07;;;7.10;;
52432;SDS011;38352;53.244;6.594;2022-09-09T07:51:37;13.70;;;7.53;;
52432;SDS011;38352;53.244;6.594;2022-09-09T07:54:05;12.23;;;6.70;;
52432;SDS011;38352;53.244;6.594;2022-09-09T07:56:31;11.48;;;6.78;;
52432;SDS011;38352;53.244;6.594;2022-09-09T07:58:58;10.85;;;6.40;;
52432;SDS011;38352;53.244;6.594;2022-09-09T08:01:25;12.02;;;6.65;;
52432;SDS011;38352;53.244;6.594;2022-09-09T08:03:53;12.00;;;5.85;;
52432;SDS011;38352;53.244;6.594;2022-09-09T08:06:19;11.93;;;6.25;;
52432;SDS011;38352;53.244;6.594;2022-09-09T08:08:49;10.68;;;7.20;;
52432;SDS011;38352;53.244;6.594;2022-09-09T08:11:16;11.00;;;6.88;;
52432;SDS011;38352;53.244;6.594;2022-09-09T08:13:42;11.35;;;6.40;;
52432;SDS011;38352;53.244;6.594;2022-09-09T08:16:11;9.73;;;6.55;;
52432;SDS011;38352;53.244;6.594;2022-09-09T08:18:37;10.25;;;6.20;;
52432;SDS011;38352;53.244;6.594;2022-09-09T08:21:11;10.27;;;6.40;;
52432;SDS011;38352;53.244;6.594;2022-09-09T08:23:38;12.32;;;6.57;;
52432;SDS011;38352;53.244;6.594;2022-09-09T08:26:05;11.32;;;6.50;;
52432;SDS011;38352;53.244;6.594;2022-09-09T08:28:31;9.25;;;5.60;;
52432;SDS011;38352;53.244;6.594;2022-09-09T08:33:53;21.20;;;6.30;;
52432;SDS011;38352;53.244;6.594;2022-09-09T08:36:20;12.35;;;6.10;;
52432;SDS011;38352;53.244;6.594;2022-09-09T08:38:47;9.02;;;5.40;;
52432;SDS011;38352;53.244;6.594;2022-09-09T08:43:44;10.27;;;5.90;;
52432;SDS011;38352;53.244;6.594;2022-09-09T08:46:24;10.27;;;6.30;;
52432;SDS011;38352;53.244;6.594;2022-09-09T08:48:54;12.02;;;6.00;;
52432;SDS011;38352;53.244;6.594;2022-09-09T08:51:23;9.73;;;5.47;;
52432;SDS011;38352;53.244;6.594;2022-09-09T08:53:50;11.93;;;5.55;;
52432;SDS011;38352;53.244;6.594;2022-09-09T08:56:18;9.55;;;5.22;;
52432;SDS011;38352;53.244;6.594;2022-09-09T08:58:54;9.75;;;5.88;;
52432;SDS011;38352;53.244;6.594;2022-09-09T09:09:02;11.38;;;5.00;;
52432;SDS011;38352;53.244;6.594;2022-09-09T09:11:40;11.45;;;5.13;;
52432;SDS011;38352;53.244;6.594;2022-09-09T09:14:10;8.27;;;5.38;;
52432;SDS011;38352;53.244;6.594;2022-09-09T09:16:52;12.07;;;6.15;;
52432;SDS011;38352;53.244;6.594;2022-09-09T09:19:19;11.05;;;5.72;;
52432;SDS011;38352;53.244;6.594;2022-09-09T09:22:10;9.57;;;5.38;;
52432;SDS011;38352;53.244;6.594;2022-09-09T09:24:56;7.57;;;4.65;;
52432;SDS011;38352;53.244;6.594;2022-09-09T09:27:31;8.38;;;5.85;;
52432;SDS011;38352;53.244;6.594;2022-09-09T09:29:58;9.15;;;5.32;;
52432;SDS011;38352;53.244;6.594;2022-09-09T09:32:24;10.20;;;5.55;;
52432;SDS011;38352;53.244;6.594;2022-09-09T09:34:53;11.80;;;5.18;;
52432;SDS011;38352;53.244;6.594;2022-09-09T09:37:31;10.98;;;5.22;;
52432;SDS011;38352;53.244;6.594;2022-09-09T09:40:11;9.73;;;5.35;;
52432;SDS011;38352;53.244;6.594;2022-09-09T09:42:38;10.77;;;5.20;;
52432;SDS011;38352;53.244;6.594;2022-09-09T09:45:29;10.75;;;6.50;;
52432;SDS011;38352;53.244;6.594;2022-09-09T09:48:02;10.35;;;5.38;;
52432;SDS011;38352;53.244;6.594;2022-09-09T09:50:28;12.90;;;5.50;;
52432;SDS011;38352;53.244;6.594;2022-09-09T09:52:55;8.48;;;4.90;;
52432;SDS011;38352;53.244;6.594;2022-09-09T09:55:22;8.88;;;5.40;;
52432;SDS011;38352;53.244;6.594;2022-09-09T09:57:49;8.23;;;4.82;;
52432;SDS011;38352;53.244;6.594;2022-09-09T10:00:16;12.75;;;4.63;;
52432;SDS011;38352;53.244;6.594;2022-09-09T10:02:43;8.80;;;4.28;;
52432;SDS011;38352;53.244;6.594;2022-09-09T10:05:17;10.20;;;4.35;;
52432;SDS011;38352;53.244;6.594;2022-09-09T10:07:44;9.60;;;4.32;;
52432;SDS011;38352;53.244;6.594;2022-09-09T10:10:20;10.18;;;4.13;;
52432;SDS011;38352;53.244;6.594;2022-09-09T10:12:56;10.57;;;4.00;;
52432;SDS011;38352;53.244;6.594;2022-09-09T10:22:51;11.65;;;4.00;;
52432;SDS011;38352;53.244;6.594;2022-09-09T10:35:30;8.80;;;3.72;;
52432;SDS011;38352;53.244;6.594;2022-09-09T10:55:43;10.00;;;2.95;;
52432;SDS011;38352;53.244;6.594;2022-09-09T10:58:10;10.82;;;2.90;;
52432;SDS011;38352;53.244;6.594;2022-09-09T11:00:40;8.85;;;2.85;;
52432;SDS011;38352;53.244;6.594;2022-09-09T11:03:09;10.52;;;3.00;;
52432;SDS011;38352;53.244;6.594;2022-09-09T11:05:43;12.35;;;2.75;;
52432;SDS011;38352;53.244;6.594;2022-09-09T11:08:18;9.00;;;2.30;;
52432;SDS011;38352;53.244;6.594;2022-09-09T11:10:53;8.07;;;3.17;;
52432;SDS011;38352;53.244;6.594;2022-09-09T11:13:29;8.30;;;3.33;;
52432;SDS011;38352;53.244;6.594;2022-09-09T11:16:04;6.00;;;2.55;;
52432;SDS011;38352;53.244;6.594;2022-09-09T11:18:32;10.95;;;2.60;;
52432;SDS011;38352;53.244;6.594;2022-09-09T11:21:02;7.50;;;2.30;;
52432;SDS011;38352;53.244;6.594;2022-09-09T11:23:39;9.07;;;2.80;;
52432;SDS011;38352;53.244;6.594;2022-09-09T11:26:06;6.10;;;2.25;;
52432;SDS011;38352;53.244;6.594;2022-09-09T11:42:06;7.50;;;2.13;;
52432;SDS011;38352;53.244;6.594;2022-09-09T11:44:33;6.10;;;1.48;;
52432;SDS011;38352;53.244;6.594;2022-09-09T11:46:59;5.00;;;2.03;;
52432;SDS011;38352;53.244;6.594;2022-09-09T11:49:27;6.28;;;2.00;;
52432;SDS011;38352;53.244;6.594;2022-09-09T11:51:53;6.50;;;1.98;;
52432;SDS011;38352;53.244;6.594;2022-09-09T11:56:55;7.05;;;2.10;;
52432;SDS011;38352;53.244;6.594;2022-09-09T11:59:22;7.03;;;2.50;;
52432;SDS011;38352;53.244;6.594;2022-09-09T12:04:35;4.90;;;1.83;;
52432;SDS011;38352;53.244;6.594;2022-09-09T12:09:52;4.65;;;2.00;;
52432;SDS011;38352;53.244;6.594;2022-09-09T12:12:23;4.63;;;2.30;;
52432;SDS011;38352;53.244;6.594;2022-09-09T12:14:57;7.95;;;2.53;;
52432;SDS011;38352;53.244;6.594;2022-09-09T12:17:25;7.72;;;2.00;;
52432;SDS011;38352;53.244;6.594;2022-09-09T12:20:09;7.22;;;2.45;;
52432;SDS011;38352;53.244;6.594;2022-09-09T12:28:11;8.00;;;2.63;;
52432;SDS011;38352;53.244;6.594;2022-09-09T12:31:02;5.03;;;1.90;;
52432;SDS011;38352;53.244;6.594;2022-09-09T12:33:32;4.05;;;1.70;;
52432;SDS011;38352;53.244;6.594;2022-09-09T12:35:59;7.22;;;2.05;;
52432;SDS011;38352;53.244;6.594;2022-09-09T12:38:32;6.03;;;2.15;;
52432;SDS011;38352;53.244;6.594;2022-09-09T12:40:59;4.25;;;2.00;;
52432;SDS011;38352;53.244;6.594;2022-09-09T12:43:26;5.60;;;2.05;;
52432;SDS011;38352;53.244;6.594;2022-09-09T12:45:57;4.32;;;1.80;;
52432;SDS011;38352;53.244;6.594;2022-09-09T12:48:34;4.28;;;1.88;;
52432;SDS011;38352;53.244;6.594;2022-09-09T12:51:01;4.95;;;1.90;;
52432;SDS011;38352;53.244;6.594;2022-09-09T12:53:30;7.82;;;2.42;;
52432;SDS011;38352;53.244;6.594;2022-09-09T12:56:02;6.68;;;1.90;;
52432;SDS011;38352;53.244;6.594;2022-09-09T12:58:29;4.55;;;1.70;;
52432;SDS011;38352;53.244;6.594;2022-09-09T13:00:59;5.60;;;1.73;;
52432;SDS011;38352;53.244;6.594;2022-09-09T13:03:28;5.60;;;1.60;;
52432;SDS011;38352;53.244;6.594;2022-09-09T13:05:57;5.75;;;1.98;;
52432;SDS011;38352;53.244;6.594;2022-09-09T13:08:25;6.35;;;1.92;;
52432;SDS011;38352;53.244;6.594;2022-09-09T13:10:57;5.57;;;2.47;;
52432;SDS011;38352;53.244;6.594;2022-09-09T13:13:35;7.28;;;2.17;;
52432;SDS011;38352;53.244;6.594;2022-09-09T13:16:01;7.20;;;1.90;;
52432;SDS011;38352;53.244;6.594;2022-09-09T13:18:30;8.68;;;1.90;;
52432;SDS011;38352;53.244;6.594;2022-09-09T13:20:56;5.18;;;1.80;;
52432;SDS011;38352;53.244;6.594;2022-09-09T13:23:25;5.22;;;2.05;;
52432;SDS011;38352;53.244;6.594;2022-09-09T13:25:59;5.97;;;1.83;;
52432;SDS011;38352;53.244;6.594;2022-09-09T13:31:27;5.18;;;1.60;;
52432;SDS011;38352;53.244;6.594;2022-09-09T13:33:44;6.00;;;1.95;;
52432;SDS011;38352;53.244;6.594;2022-09-09T13:36:11;6.85;;;2.45;;
52432;SDS011;38352;53.244;6.594;2022-09-09T13:41:24;5.60;;;1.83;;
52432;SDS011;38352;53.244;6.594;2022-09-09T13:43:51;5.85;;;2.10;;
52432;SDS011;38352;53.244;6.594;2022-09-09T13:46:32;5.95;;;1.73;;
52432;SDS011;38352;53.244;6.594;2022-09-09T13:49:16;5.95;;;1.60;;
52432;SDS011;38352;53.244;6.594;2022-09-09T13:51:45;5.30;;;1.63;;
52432;SDS011;38352;53.244;6.594;2022-09-09T13:54:15;6.90;;;2.22;;
52432;SDS011;38352;53.244;6.594;2022-09-09T13:56:42;6.72;;;1.92;;
52432;SDS011;38352;53.244;6.594;2022-09-09T13:59:10;6.80;;;2.08;;
52432;SDS011;38352;53.244;6.594;2022-09-09T14:01:36;5.45;;;1.85;;
52432;SDS011;38352;53.244;6.594;2022-09-09T14:04:02;5.60;;;1.60;;
52432;SDS011;38352;53.244;6.594;2022-09-09T14:06:30;5.63;;;2.13;;
52432;SDS011;38352;53.244;6.594;2022-09-09T14:08:57;20.00;;;2.15;;
52432;SDS011;38352;53.244;6.594;2022-09-09T14:11:23;3.88;;;1.70;;
52432;SDS011;38352;53.244;6.594;2022-09-09T14:13:50;5.50;;;1.58;;
52432;SDS011;38352;53.244;6.594;2022-09-09T14:16:16;6.55;;;1.73;;
52432;SDS011;38352;53.244;6.594;2022-09-09T14:18:43;2.63;;;1.48;;
52432;SDS011;38352;53.244;6.594;2022-09-09T14:21:09;3.92;;;1.40;;
52432;SDS011;38352;53.244;6.594;2022-09-09T14:23:36;2.53;;;1.42;;
52432;SDS011;38352;53.244;6.594;2022-09-09T14:26:03;3.22;;;1.30;;
52432;SDS011;38352;53.244;6.594;2022-09-09T14:28:29;3.67;;;1.75;;
52432;SDS011;38352;53.244;6.594;2022-09-09T14:30:58;3.88;;;1.25;;
52432;SDS011;38352;53.244;6.594;2022-09-09T14:33:24;5.78;;;1.40;;
52432;SDS011;38352;53.244;6.594;2022-09-09T14:35:55;2.50;;;0.77;;
52432;SDS011;38352;53.244;6.594;2022-09-09T14:38:21;2.47;;;1.00;;
52432;SDS011;38352;53.244;6.594;2022-09-09T14:40:47;4.47;;;1.30;;
52432;SDS011;38352;53.244;6.594;2022-09-09T14:43:13;3.00;;;1.10;;
52432;SDS011;38352;53.244;6.594;2022-09-09T14:45:40;3.15;;;1.10;;
52432;SDS011;38352;53.244;6.594;2022-09-09T14:48:06;3.95;;;1.33;;
52432;SDS011;38352;53.244;6.594;2022-09-09T14:50:32;3.42;;;1.20;;
52432;SDS011;38352;53.244;6.594;2022-09-09T14:52:59;6.35;;;1.10;;
52432;SDS011;38352;53.244;6.594;2022-09-09T14:55:25;7.50;;;1.23;;
52432;SDS011;38352;53.244;6.594;2022-09-09T14:57:53;4.10;;;1.30;;
52432;SDS011;38352;53.244;6.594;2022-09-09T15:00:19;6.38;;;1.40;;
52432;SDS011;38352;53.244;6.594;2022-09-09T15:02:45;4.30;;;1.77;;
52432;SDS011;38352;53.244;6.594;2022-09-09T15:05:11;1.92;;;1.10;;
52432;SDS011;38352;53.244;6.594;2022-09-09T15:07:37;1.38;;;0.80;;
52432;SDS011;38352;53.244;6.594;2022-09-09T15:10:04;3.30;;;1.17;;
52432;SDS011;38352;53.244;6.594;2022-09-09T15:12:31;3.83;;;1.38;;
52432;SDS011;38352;53.244;6.594;2022-09-09T15:14:58;4.25;;;1.80;;
52432;SDS011;38352;53.244;6.594;2022-09-09T15:17:24;6.35;;;2.20;;
52432;SDS011;38352;53.244;6.594;2022-09-09T15:19:52;5.50;;;2.13;;
52432;SDS011;38352;53.244;6.594;2022-09-09T15:22:19;5.03;;;1.98;;
52432;SDS011;38352;53.244;6.594;2022-09-09T15:24:45;5.15;;;2.00;;
52432;SDS011;38352;53.244;6.594;2022-09-09T15:27:12;5.18;;;2.25;;
52432;SDS011;38352;53.244;6.594;2022-09-09T15:29:39;6.18;;;2.25;;
52432;SDS011;38352;53.244;6.594;2022-09-09T15:32:06;5.38;;;2.25;;
52432;SDS011;38352;53.244;6.594;2022-09-09T15:34:32;5.45;;;2.10;;
52432;SDS011;38352;53.244;6.594;2022-09-09T15:36:58;5.70;;;2.30;;
52432;SDS011;38352;53.244;6.594;2022-09-09T15:39:25;7.70;;;3.05;;
52432;SDS011;38352;53.244;6.594;2022-09-09T15:41:51;8.25;;;2.78;;
52432;SDS011;38352;53.244;6.594;2022-09-09T15:44:17;6.72;;;2.58;;
52432;SDS011;38352;53.244;6.594;2022-09-09T15:49:17;6.25;;;2.20;;
52432;SDS011;38352;53.244;6.594;2022-09-09T15:51:44;4.60;;;2.30;;
52432;SDS011;38352;53.244;6.594;2022-09-09T15:54:14;6.93;;;2.28;;
52432;SDS011;38352;53.244;6.594;2022-09-09T15:56:46;6.03;;;2.03;;
52432;SDS011;38352;53.244;6.594;2022-09-09T15:59:13;4.05;;;1.85;;
52432;SDS011;38352;53.244;6.594;2022-09-09T16:01:40;4.90;;;1.35;;
52432;SDS011;38352;53.244;6.594;2022-09-09T16:04:07;3.33;;;1.17;;
52432;SDS011;38352;53.244;6.594;2022-09-09T16:06:33;5.80;;;1.40;;
52432;SDS011;38352;53.244;6.594;2022-09-09T16:08:59;4.65;;;1.67;;
52432;SDS011;38352;53.244;6.594;2022-09-09T16:11:30;2.78;;;1.63;;
52432;SDS011;38352;53.244;6.594;2022-09-09T16:13:57;4.30;;;1.30;;
52432;SDS011;38352;53.244;6.594;2022-09-09T16:16:24;2.75;;;1.25;;
52432;SDS011;38352;53.244;6.594;2022-09-09T16:18:54;5.13;;;1.27;;
52432;SDS011;38352;53.244;6.594;2022-09-09T16:21:22;2.35;;;1.30;;
52432;SDS011;38352;53.244;6.594;2022-09-09T16:23:49;3.13;;;1.33;;
52432;SDS011;38352;53.244;6.594;2022-09-09T16:26:15;2.60;;;1.30;;
52432;SDS011;38352;53.244;6.594;2022-09-09T16:28:42;5.20;;;1.80;;
52432;SDS011;38352;53.244;6.594;2022-09-09T16:31:09;3.13;;;1.63;;
52432;SDS011;38352;53.244;6.594;2022-09-09T16:33:36;5.15;;;1.77;;
52432;SDS011;38352;53.244;6.594;2022-09-09T16:36:06;3.40;;;1.63;;
52432;SDS011;38352;53.244;6.594;2022-09-09T16:38:32;3.20;;;1.40;;
52432;SDS011;38352;53.244;6.594;2022-09-09T16:41:00;2.90;;;1.55;;
52432;SDS011;38352;53.244;6.594;2022-09-09T16:43:27;4.78;;;1.80;;
52432;SDS011;38352;53.244;6.594;2022-09-09T16:45:53;5.13;;;1.67;;